Time;durP1;ratioP1;P1;durP2;ratioP2;P2;SDS_P1;SDS_P2;PMS_P1;PMS_P2;Temp;Humidity;BMP_temperature;BMP_pressure;BME280_temperature;BME280_humidity;BME280_pressure;Samples;Min_cycle;Max_cycle;Signal;HPM_P1;HPM_P2
2021/06/17 00:01:23;;;;;;;9.13;8.33;;;24.50;96.40;;;;;;5071116;28;20823;-39
2021/06/17 00:03:48;;;;;;;10.00;8.40;;;24.50;96.50;;;;;;5089529;28;20192;-40
2021/06/17 00:06:14;;;;;;;8.70;7.90;;;24.50;96.50;;;;;;5089235;28;20199;-39
2021/06/17 00:08:40;;;;;;;8.90;8.03;;;24.40;96.50;;;;;;5088469;28;20216;-39
2021/06/17 00:11:06;;;;;;;8.87;7.90;;;24.50;96.60;;;;;;5083152;28;20359;-39
2021/06/17 00:13:36;;;;;;;8.03;7.53;;;24.40;96.60;;;;;;5085801;28;20276;-39
2021/06/17 00:16:03;;;;;;;8.93;8.23;;;24.40;96.50;;;;;;5088928;28;20646;-39
2021/06/17 00:18:29;;;;;;;8.80;7.90;;;24.40;96.60;;;;;;5089285;28;20476;-39
2021/06/17 00:20:55;;;;;;;9.73;8.13;;;24.40;96.60;;;;;;5088256;28;20506;-39
2021/06/17 00:23:22;;;;;;;8.67;8.00;;;24.40;96.70;;;;;;5089273;28;20461;-39
2021/06/17 00:25:47;;;;;;;8.70;8.00;;;24.40;96.70;;;;;;5082219;28;20674;-39
2021/06/17 00:28:13;;;;;;;11.37;8.43;;;24.40;96.60;;;;;;5083935;28;20493;-39
2021/06/17 00:30:40;;;;;;;9.30;8.37;;;24.40;96.60;;;;;;5082027;28;20188;-39
2021/06/17 00:33:06;;;;;;;8.63;8.03;;;24.40;96.70;;;;;;5088798;28;20180;-38
2021/06/17 00:35:32;;;;;;;9.23;8.37;;;24.40;96.70;;;;;;5089007;28;20421;-39
2021/06/17 00:38:00;;;;;;;9.20;7.73;;;24.30;96.60;;;;;;5088606;28;20426;-39
2021/06/17 00:40:27;;;;;;;8.80;7.90;;;24.40;96.60;;;;;;5085509;28;20435;-39
2021/06/17 00:42:54;;;;;;;8.13;7.37;;;24.30;96.90;;;;;;5082580;28;20442;-39
2021/06/17 00:45:29;;;;;;;8.83;8.10;;;24.30;96.70;;;;;;5086991;28;20422;-39
2021/06/17 00:47:55;;;;;;;9.30;8.50;;;24.20;96.80;;;;;;5088193;28;21043;-39
2021/06/17 00:50:23;;;;;;;8.97;8.20;;;24.20;96.70;;;;;;5088047;28;20467;-39
2021/06/17 00:52:49;;;;;;;8.30;7.70;;;24.10;96.70;;;;;;5088181;28;20426;-39
2021/06/17 00:55:15;;;;;;;8.30;7.70;;;24.20;96.80;;;;;;5087344;28;20437;-39
2021/06/17 00:57:41;;;;;;;8.43;7.60;;;24.20;96.70;;;;;;5081345;28;20172;-39
2021/06/17 01:00:10;;;;;;;8.40;7.80;;;24.20;96.80;;;;;;5066827;28;20177;-39
2021/06/17 01:02:35;;;;;;;9.27;8.47;;;24.10;96.70;;;;;;5088346;28;20973;-39
2021/06/17 01:05:02;;;;;;;8.50;7.70;;;24.20;96.80;;;;;;5088433;28;20423;-39
2021/06/17 01:07:39;;;;;;;9.20;8.20;;;24.10;96.80;;;;;;5088639;28;20261;-39
2021/06/17 01:10:15;;;;;;;8.30;7.63;;;24.00;96.90;;;;;;5086575;28;20868;-39
2021/06/17 01:13:14;;;;;;;7.77;7.00;;;24.00;96.90;;;;;;5079590;28;20406;-39
2021/06/17 01:15:47;;;;;;;7.73;7.10;;;24.00;97.00;;;;;;5074336;28;20415;-38
2021/06/17 01:18:16;;;;;;;8.23;7.53;;;23.90;97.00;;;;;;5087566;28;20419;-39
2021/06/17 01:20:55;;;;;;;7.97;7.27;;;23.90;97.00;;;;;;5087196;28;20422;-39
2021/06/17 01:23:39;;;;;;;7.70;7.00;;;23.90;97.10;;;;;;5087985;28;20421;-39
2021/06/17 01:26:13;;;;;;;8.87;8.07;;;23.90;97.20;;;;;;5081365;28;20457;-40
2021/06/17 01:28:40;;;;;;;7.50;6.80;;;23.90;97.30;;;;;;5086296;28;20450;-39
2021/06/17 01:31:18;;;;;;;7.57;6.87;;;23.80;97.40;;;;;;5066450;28;20801;-39
2021/06/17 01:33:46;;;;;;;7.80;7.20;;;23.80;97.30;;;;;;5087830;28;20419;-39
2021/06/17 01:36:37;;;;;;;7.97;7.37;;;23.70;97.50;;;;;;5087480;28;20464;-39
2021/06/17 01:39:11;;;;;;;9.07;8.37;;;23.80;97.40;;;;;;5086216;28;20425;-39
2021/06/17 01:41:41;;;;;;;8.17;7.37;;;23.80;97.60;;;;;;5077904;28;20964;-39
2021/06/17 01:44:08;;;;;;;7.00;6.50;;;23.70;97.50;;;;;;5085223;28;20422;-39
2021/06/17 01:46:35;;;;;;;7.73;6.93;;;23.70;97.40;;;;;;5087212;28;20434;-39
2021/06/17 01:49:01;;;;;;;7.70;7.10;;;23.70;97.60;;;;;;5086472;28;20569;-39
2021/06/17 01:51:29;;;;;;;7.90;7.30;;;23.60;97.50;;;;;;5087310;28;21016;-39
2021/06/17 01:53:55;;;;;;;8.30;7.50;;;23.60;97.60;;;;;;5087362;28;21017;-39
2021/06/17 01:56:23;;;;;;;8.03;7.33;;;23.60;97.60;;;;;;5079231;28;20504;-39
2021/06/17 01:58:56;;;;;;;7.67;7.07;;;23.60;97.80;;;;;;5072951;28;20181;-39
2021/06/17 02:01:26;;;;;;;8.33;7.50;;;23.50;97.90;;;;;;5061793;28;20509;-39
2021/06/17 02:03:52;;;;;;;7.77;7.07;;;23.50;97.90;;;;;;5087018;28;20461;-39
2021/06/17 02:06:18;;;;;;;8.47;7.77;;;23.50;98.00;;;;;;5068624;28;20422;-39
2021/06/17 02:08:55;;;;;;;8.47;7.67;;;23.50;98.10;;;;;;5086442;28;20549;-39
2021/06/17 02:11:22;;;;;;;8.13;7.30;;;23.40;98.10;;;;;;5085917;28;21046;-39
2021/06/17 02:13:49;;;;;;;8.20;7.50;;;23.40;98.20;;;;;;5078067;28;20468;-39
2021/06/17 02:16:16;;;;;;;8.23;7.53;;;23.40;98.10;;;;;;5084568;28;20710;-39
2021/06/17 02:18:45;;;;;;;9.30;7.80;;;23.50;98.00;;;;;;5068003;28;20449;-38
2021/06/17 02:21:13;;;;;;;9.63;8.00;;;23.40;98.20;;;;;;5086656;28;20471;-38
2021/06/17 02:23:44;;;;;;;8.13;7.53;;;23.30;98.10;;;;;;5086974;28;20900;-39
2021/06/17 02:26:11;;;;;;;8.37;7.67;;;23.30;98.20;;;;;;5086302;28;20738;-39
2021/06/17 02:28:41;;;;;;;7.90;7.30;;;23.40;98.40;;;;;;5057705;28;20957;-39
2021/06/17 02:31:11;;;;;;;8.13;7.33;;;23.30;98.40;;;;;;5085477;28;20457;-39
2021/06/17 02:33:38;;;;;;;8.40;7.80;;;23.30;98.70;;;;;;5073307;28;20477;-39
2021/06/17 02:36:06;;;;;;;8.60;7.90;;;23.20;98.70;;;;;;5086925;28;20429;-39
2021/06/17 02:38:38;;;;;;;7.57;7.03;;;23.20;98.70;;;;;;5068488;28;20772;-39
2021/06/17 02:41:09;;;;;;;10.83;7.63;;;23.20;98.80;;;;;;5083520;28;20426;-39
2021/06/17 02:43:38;;;;;;;8.03;7.43;;;23.10;98.80;;;;;;5079099;28;21517;-38
2021/06/17 02:46:04;;;;;;;8.90;7.70;;;23.10;99.00;;;;;;5077583;28;20427;-39
2021/06/17 02:48:30;;;;;;;8.77;7.97;;;23.00;99.00;;;;;;5086287;28;20458;-39
2021/06/17 02:50:56;;;;;;;7.87;7.27;;;23.10;99.10;;;;;;5085679;28;20422;-39
2021/06/17 02:53:22;;;;;;;8.47;7.77;;;23.10;99.10;;;;;;5086240;28;20415;-39
2021/06/17 02:55:49;;;;;;;8.37;7.70;;;23.00;99.20;;;;;;5085964;28;20593;-39
2021/06/17 02:58:25;;;;;;;8.87;8.17;;;23.00;99.20;;;;;;5077287;28;20419;-39
2021/06/17 03:01:02;;;;;;;9.33;8.20;;;23.00;99.40;;;;;;5078651;28;20445;-39
2021/06/17 03:03:57;;;;;;;8.27;7.57;;;22.90;99.40;;;;;;5068226;28;20453;-38
2021/06/17 03:06:35;;;;;;;9.37;8.33;;;22.80;99.50;;;;;;5069190;28;20426;-39
2021/06/17 03:09:06;;;;;;;8.70;7.80;;;22.90;99.60;;;;;;5085586;28;20979;-39
2021/06/17 03:11:35;;;;;;;8.60;7.90;;;22.90;99.60;;;;;;5083543;28;20426;-39
2021/06/17 03:14:14;;;;;;;9.17;8.27;;;22.90;99.60;;;;;;5060282;28;20421;-39
2021/06/17 03:16:42;;;;;;;7.60;7.00;;;22.80;99.80;;;;;;5081091;28;21011;-38
2021/06/17 03:19:10;;;;;;;7.97;7.37;;;22.80;99.70;;;;;;5067498;28;20429;-39
2021/06/17 03:21:44;;;;;;;8.53;7.83;;;22.80;99.70;;;;;;5086281;28;20473;-39
2021/06/17 03:24:10;;;;;;;8.97;8.17;;;22.80;99.70;;;;;;5086100;28;20607;-38
2021/06/17 03:26:40;;;;;;;8.60;7.33;;;22.80;99.70;;;;;;5084106;28;20669;-39
2021/06/17 03:29:09;;;;;;;8.53;7.83;;;22.80;99.70;;;;;;5080235;28;20657;-39
2021/06/17 03:31:36;;;;;;;8.93;8.10;;;22.80;99.80;;;;;;5080561;28;20414;-39
2021/06/17 03:34:04;;;;;;;8.43;7.70;;;22.80;99.90;;;;;;5067943;28;20433;-39
2021/06/17 03:36:32;;;;;;;8.10;7.40;;;22.80;99.90;;;;;;5085592;28;20464;-39
2021/06/17 03:38:58;;;;;;;9.00;8.10;;;22.70;99.90;;;;;;5085475;28;20418;-39
2021/06/17 03:41:24;;;;;;;9.30;8.47;;;22.70;99.90;;;;;;5081338;28;20458;-39
2021/06/17 03:43:51;;;;;;;8.90;8.17;;;22.70;99.90;;;;;;5078631;28;20432;-39
2021/06/17 03:46:19;;;;;;;8.60;7.90;;;22.70;99.90;;;;;;5080855;28;20418;-39
2021/06/17 03:48:46;;;;;;;7.70;7.10;;;22.60;99.90;;;;;;5085674;28;20442;-39
2021/06/17 03:51:13;;;;;;;8.03;7.33;;;22.60;99.90;;;;;;5086033;28;20476;-38
2021/06/17 03:53:40;;;;;;;7.80;7.20;;;22.70;99.90;;;;;;5085829;28;20421;-39
2021/06/17 03:56:06;;;;;;;8.80;8.10;;;22.70;99.90;;;;;;5085551;28;20480;-38
2021/06/17 03:58:32;;;;;;;7.77;7.17;;;22.70;99.90;;;;;;5065854;28;20441;-39
2021/06/17 04:00:59;;;;;;;8.13;7.37;;;22.70;99.90;;;;;;5082487;28;20684;-39
2021/06/17 04:03:26;;;;;;;8.40;7.70;;;22.70;99.90;;;;;;5086460;28;20939;-38
2021/06/17 04:05:56;;;;;;;8.40;7.50;;;22.60;99.90;;;;;;5089135;28;20406;-39
2021/06/17 04:08:26;;;;;;;8.80;8.00;;;22.70;99.90;;;;;;5071131;28;20450;-39
2021/06/17 04:10:58;;;;;;;8.03;7.23;;;22.70;99.90;;;;;;5070558;28;20502;-39
2021/06/17 04:13:28;;;;;;;7.83;7.13;;;22.70;99.90;;;;;;5080802;28;20723;-39
2021/06/17 04:15:57;;;;;;;8.50;7.80;;;22.70;99.90;;;;;;5086113;28;20489;-38
2021/06/17 04:18:25;;;;;;;8.47;7.67;;;22.70;99.90;;;;;;5084113;28;20425;-39
2021/06/17 04:20:53;;;;;;;8.80;8.07;;;22.70;99.90;;;;;;5070524;28;20606;-38
2021/06/17 04:23:20;;;;;;;8.63;7.83;;;22.70;99.90;;;;;;5088832;28;20819;-38
2021/06/17 04:25:48;;;;;;;8.03;7.40;;;22.70;99.90;;;;;;5089092;28;20769;-39
2021/06/17 04:28:14;;;;;;;8.90;8.00;;;22.70;99.90;;;;;;5083384;28;20516;-39
2021/06/17 04:30:41;;;;;;;8.37;7.47;;;22.70;99.90;;;;;;5079911;28;20429;-39
2021/06/17 04:33:11;;;;;;;8.33;7.57;;;22.80;99.90;;;;;;5084568;28;20640;-39
2021/06/17 04:35:43;;;;;;;8.53;7.63;;;22.90;99.90;;;;;;5088996;28;20506;-38
2021/06/17 04:38:11;;;;;;;8.43;7.57;;;22.80;99.90;;;;;;5070475;28;20419;-39
2021/06/17 04:40:37;;;;;;;7.17;6.53;;;22.90;99.90;;;;;;5068597;28;20733;-39
2021/06/17 04:43:04;;;;;;;8.07;7.37;;;22.80;99.90;;;;;;5083929;28;20486;-39
2021/06/17 04:45:31;;;;;;;9.73;7.67;;;23.00;99.90;;;;;;5082678;28;21271;-39
2021/06/17 04:48:00;;;;;;;7.87;7.17;;;23.00;99.90;;;;;;5088285;28;20490;-39
2021/06/17 04:50:26;;;;;;;7.80;7.10;;;23.10;99.90;;;;;;5088201;28;20491;-39
2021/06/17 04:52:57;;;;;;;7.40;6.77;;;23.10;99.90;;;;;;5070039;28;20426;-39
2021/06/17 04:55:23;;;;;;;8.43;7.73;;;23.10;99.90;;;;;;5088897;28;20956;-38
2021/06/17 04:57:49;;;;;;;8.47;7.63;;;23.10;99.90;;;;;;5086668;28;20488;-39
2021/06/17 05:00:16;;;;;;;8.60;7.73;;;23.20;99.90;;;;;;5083713;28;20177;-39
2021/06/17 05:02:41;;;;;;;6.90;6.30;;;23.20;99.90;;;;;;5088499;28;20700;-38
2021/06/17 05:05:08;;;;;;;11.67;7.37;;;23.30;99.90;;;;;;5087974;28;20476;-38
2021/06/17 05:12:59;;;;;;;7.40;6.63;;;23.40;99.90;;;;;;5055474;28;20922;-39
2021/06/17 05:15:25;;;;;;;7.40;6.70;;;23.50;99.90;;;;;;5058155;28;20445;-39
2021/06/17 05:17:51;;;;;;;7.77;7.00;;;23.50;99.90;;;;;;5085601;28;20575;-39
2021/06/17 05:20:17;;;;;;;10.60;7.20;;;23.60;99.90;;;;;;5087145;28;20255;-39
2021/06/17 05:22:44;;;;;;;7.77;6.97;;;23.60;99.80;;;;;;5088121;28;20184;-39
2021/06/17 05:25:12;;;;;;;8.43;6.93;;;23.70;99.90;;;;;;5087849;28;20185;-39
2021/06/17 05:27:39;;;;;;;7.77;7.03;;;23.80;99.90;;;;;;5046283;28;20434;-39
2021/06/17 05:30:06;;;;;;;7.70;7.00;;;23.80;99.90;;;;;;5079480;28;20422;-39
2021/06/17 05:32:32;;;;;;;7.37;6.80;;;23.90;99.90;;;;;;5069448;28;20437;-39
2021/06/17 05:34:58;;;;;;;7.60;6.90;;;24.00;99.90;;;;;;5087751;28;20427;-39
2021/06/17 05:37:24;;;;;;;7.60;7.00;;;24.10;99.90;;;;;;5087506;28;20792;-39
2021/06/17 05:39:49;;;;;;;7.13;6.53;;;24.10;99.90;;;;;;5085737;28;20550;-39
2021/06/17 05:42:15;;;;;;;8.07;7.30;;;24.30;99.70;;;;;;5086438;28;20203;-39
2021/06/17 05:44:40;;;;;;;7.30;6.67;;;24.40;99.80;;;;;;5079475;28;20185;-39
2021/06/17 05:47:06;;;;;;;7.03;6.50;;;24.40;99.50;;;;;;5064681;28;20193;-39
2021/06/17 05:49:32;;;;;;;7.30;6.70;;;24.50;99.60;;;;;;5068311;28;20212;-39
2021/06/17 05:51:58;;;;;;;7.23;6.50;;;24.60;99.40;;;;;;5078934;28;20211;-39
2021/06/17 05:54:23;;;;;;;7.63;6.93;;;24.70;99.50;;;;;;5069303;28;20546;-39
2021/06/17 05:56:49;;;;;;;8.17;7.10;;;24.80;99.30;;;;;;5087252;28;20904;-39
2021/06/17 05:59:17;;;;;;;6.53;5.90;;;24.80;99.10;;;;;;5058782;28;20188;-39
2021/06/17 06:01:44;;;;;;;6.93;6.33;;;25.00;98.80;;;;;;5060304;28;20196;-39
2021/06/17 06:04:09;;;;;;;6.87;6.27;;;25.10;98.60;;;;;;5069096;28;20991;-39
2021/06/17 06:06:35;;;;;;;7.57;6.97;;;25.20;98.40;;;;;;5087348;28;20427;-39
2021/06/17 06:09:01;;;;;;;7.40;6.80;;;25.30;98.10;;;;;;5086662;28;20212;-39
2021/06/17 06:11:26;;;;;;;6.90;6.30;;;25.40;97.60;;;;;;5087700;28;20347;-39
2021/06/17 06:13:52;;;;;;;7.03;6.43;;;25.40;97.20;;;;;;5047544;28;20185;-39
2021/06/17 06:16:17;;;;;;;7.17;6.47;;;25.50;97.00;;;;;;5079049;28;20295;-39
2021/06/17 06:18:43;;;;;;;8.00;6.20;;;25.50;96.60;;;;;;5085283;28;20282;-39
2021/06/17 06:21:09;;;;;;;6.67;6.00;;;25.60;96.90;;;;;;5075307;28;20185;-39
2021/06/17 06:23:34;;;;;;;6.60;6.10;;;25.70;96.80;;;;;;5082497;28;20309;-39
2021/06/17 06:26:00;;;;;;;7.00;6.37;;;25.80;96.80;;;;;;5049209;28;20197;-39
2021/06/17 06:28:26;;;;;;;6.60;6.07;;;25.90;96.50;;;;;;5075107;28;20215;-39
2021/06/17 06:30:53;;;;;;;6.80;6.13;;;26.00;96.70;;;;;;5077233;28;20422;-39
2021/06/17 06:33:21;;;;;;;6.10;5.60;;;26.10;96.20;;;;;;5075578;28;20414;-39
2021/06/17 06:35:48;;;;;;;6.90;6.30;;;26.20;95.70;;;;;;5068848;28;20421;-40
2021/06/17 06:38:14;;;;;;;6.90;6.33;;;26.30;96.00;;;;;;5086489;28;20416;-39
2021/06/17 06:40:40;;;;;;;6.93;6.20;;;26.40;95.60;;;;;;5066535;28;20414;-39
2021/06/17 06:43:07;;;;;;;7.00;6.40;;;26.50;95.60;;;;;;5081045;28;20892;-39
2021/06/17 06:45:33;;;;;;;6.23;5.50;;;26.50;95.10;;;;;;5075054;28;20514;-39
2021/06/17 06:48:00;;;;;;;6.40;5.90;;;26.60;95.00;;;;;;5080645;28;20503;-39
2021/06/17 06:50:26;;;;;;;7.37;6.10;;;26.60;95.10;;;;;;5085800;28;20426;-39
2021/06/17 06:52:52;;;;;;;6.33;5.73;;;26.70;95.00;;;;;;5082446;28;20489;-39
2021/06/17 06:55:18;;;;;;;6.47;5.97;;;26.90;95.30;;;;;;5054382;28;20910;-40
2021/06/17 06:57:44;;;;;;;6.33;5.73;;;27.00;94.90;;;;;;5085053;28;20489;-39
2021/06/17 07:00:12;;;;;;;6.70;6.10;;;27.00;94.00;;;;;;5081835;28;20457;-39
2021/06/17 07:02:38;;;;;;;7.50;6.50;;;27.00;94.30;;;;;;5084812;28;20446;-39
2021/06/17 07:05:05;;;;;;;5.70;5.20;;;27.10;94.10;;;;;;5084871;28;20432;-39
2021/06/17 07:07:31;;;;;;;6.50;6.00;;;27.10;93.80;;;;;;5076277;28;20426;-40
2021/06/17 07:09:57;;;;;;;9.63;6.30;;;27.20;93.90;;;;;;5079265;28;20465;-40
2021/06/17 07:12:22;;;;;;;7.13;6.00;;;27.30;93.90;;;;;;5078593;28;20450;-40
2021/06/17 07:14:48;;;;;;;6.70;6.20;;;27.40;94.00;;;;;;5080324;28;20180;-39
2021/06/17 07:17:15;;;;;;;6.33;5.83;;;27.60;93.40;;;;;;5082697;28;20189;-39
2021/06/17 07:19:41;;;;;;;6.63;6.03;;;27.60;92.80;;;;;;5085635;28;20535;-39
2021/06/17 07:22:08;;;;;;;7.17;6.50;;;27.70;93.40;;;;;;5086089;28;20462;-39
2021/06/17 07:24:33;;;;;;;6.23;5.73;;;27.80;93.10;;;;;;5067995;28;20425;-40
2021/06/17 07:26:59;;;;;;;7.07;5.90;;;27.80;93.00;;;;;;5085442;28;20423;-39
2021/06/17 07:29:25;;;;;;;6.63;6.10;;;27.90;93.00;;;;;;5079296;28;20209;-39
2021/06/17 07:31:51;;;;;;;7.60;6.90;;;28.00;93.30;;;;;;5085839;28;20170;-40
2021/06/17 07:34:17;;;;;;;6.60;6.10;;;28.10;92.70;;;;;;5061937;28;20423;-40
2021/06/17 07:36:44;;;;;;;6.93;6.33;;;28.10;92.90;;;;;;5082935;28;20208;-39
2021/06/17 07:39:12;;;;;;;6.30;5.80;;;28.20;93.10;;;;;;5088615;28;20199;-39
2021/06/17 07:41:38;;;;;;;7.03;6.40;;;28.30;92.80;;;;;;5086861;28;20795;-41
2021/06/17 07:44:05;;;;;;;7.03;6.53;;;28.30;92.80;;;;;;5084039;28;20423;-40
2021/06/17 07:46:31;;;;;;;7.13;6.60;;;28.40;93.10;;;;;;5068911;28;20476;-40
2021/06/17 07:49:01;;;;;;;6.27;5.77;;;28.50;92.40;;;;;;5068777;28;20457;-39
2021/06/17 07:51:30;;;;;;;6.57;6.13;;;28.50;92.00;;;;;;5089858;28;20418;-39
2021/06/17 07:53:59;;;;;;;6.63;6.00;;;28.60;92.40;;;;;;5071556;28;20985;-39
2021/06/17 07:56:29;;;;;;;6.50;5.93;;;28.60;92.00;;;;;;5071779;28;20423;-41
2021/06/17 07:58:55;;;;;;;6.60;6.07;;;28.70;92.20;;;;;;5083620;28;20506;-39
2021/06/17 08:01:21;;;;;;;7.03;6.17;;;28.70;92.20;;;;;;5087611;28;20418;-40
2021/06/17 08:03:48;;;;;;;7.43;6.27;;;28.80;92.60;;;;;;5051899;28;20445;-40
2021/06/17 08:06:14;;;;;;;7.20;6.60;;;28.70;91.40;;;;;;5089739;28;20184;-39
2021/06/17 08:08:40;;;;;;;12.13;6.60;;;28.70;92.40;;;;;;5088406;28;20852;-42
2021/06/17 08:11:06;;;;;;;6.40;6.00;;;28.70;92.00;;;;;;5089476;28;20917;-40
2021/06/17 08:13:32;;;;;;;7.17;6.67;;;28.70;92.30;;;;;;5068860;28;20433;-39
2021/06/17 08:15:57;;;;;;;7.53;6.40;;;28.70;92.00;;;;;;5077419;28;20236;-41
2021/06/17 08:18:23;;;;;;;6.30;5.80;;;28.60;92.30;;;;;;5087268;28;20215;-41
2021/06/17 08:20:50;;;;;;;7.07;6.47;;;28.60;92.30;;;;;;5070397;28;20200;-40
2021/06/17 08:23:19;;;;;;;6.37;5.90;;;28.60;91.70;;;;;;5089187;28;20357;-39
2021/06/17 08:25:45;;;;;;;7.37;6.70;;;28.60;92.40;;;;;;5089084;28;20837;-40
2021/06/17 08:28:10;;;;;;;6.20;5.70;;;28.70;92.30;;;;;;5089251;28;20553;-39
2021/06/17 08:30:36;;;;;;;7.10;6.60;;;28.80;91.80;;;;;;5074444;28;20176;-40
2021/06/17 08:33:03;;;;;;;7.30;6.60;;;28.80;91.20;;;;;;5063152;28;20181;-40
2021/06/17 08:35:29;;;;;;;7.40;6.70;;;28.90;91.90;;;;;;5070956;28;20851;-40
2021/06/17 08:37:55;;;;;;;6.97;6.40;;;29.00;91.90;;;;;;5088700;28;20459;-42
2021/06/17 08:40:26;;;;;;;6.33;5.93;;;29.10;91.70;;;;;;5087346;28;20524;-40
2021/06/17 08:42:52;;;;;;;7.07;6.50;;;29.30;91.70;;;;;;5070635;28;20437;-40
2021/06/17 08:45:18;;;;;;;7.53;6.83;;;29.40;91.60;;;;;;5080763;28;21072;-39
2021/06/17 08:47:45;;;;;;;7.13;6.57;;;29.30;90.40;;;;;;5084374;28;20830;-40
2021/06/17 08:50:13;;;;;;;7.03;6.43;;;29.40;90.50;;;;;;5087628;28;20188;-39
2021/06/17 08:52:40;;;;;;;6.63;6.13;;;29.40;90.10;;;;;;5088590;28;20483;-41
2021/06/17 08:55:20;;;;;;;7.03;6.43;;;29.50;90.00;;;;;;5070811;28;20446;-40
2021/06/17 08:57:48;;;;;;;6.70;6.10;;;29.60;89.40;;;;;;5070383;28;20458;-40
2021/06/17 09:00:20;;;;;;;6.67;6.00;;;29.70;88.20;;;;;;5078906;28;20723;-40
2021/06/17 09:02:56;;;;;;;6.70;6.10;;;29.80;87.10;;;;;;5087246;28;20406;-40
2021/06/17 09:05:23;;;;;;;6.50;5.90;;;29.80;86.50;;;;;;5083095;28;20525;-39
2021/06/17 09:07:49;;;;;;;6.00;5.50;;;29.90;87.10;;;;;;5088256;28;20425;-40
2021/06/17 09:10:16;;;;;;;6.60;6.00;;;29.90;86.00;;;;;;5088040;28;20423;-40
2021/06/17 09:12:46;;;;;;;6.70;6.20;;;30.00;86.00;;;;;;5088215;28;20422;-42
2021/06/17 09:15:13;;;;;;;7.00;6.40;;;30.10;86.20;;;;;;5085532;28;20525;-40
2021/06/17 09:17:39;;;;;;;6.83;6.30;;;30.20;86.70;;;;;;5064952;28;20480;-41
2021/06/17 09:20:08;;;;;;;6.10;5.70;;;30.30;86.40;;;;;;5084184;28;20414;-40
2021/06/17 09:22:35;;;;;;;6.20;5.60;;;30.40;85.60;;;;;;5069873;28;20630;-39
2021/06/17 09:25:02;;;;;;;7.43;6.37;;;30.40;86.70;;;;;;5088117;28;20482;-41
2021/06/17 09:27:42;;;;;;;7.30;6.70;;;30.60;87.70;;;;;;5087915;28;20426;-40
2021/06/17 09:30:11;;;;;;;6.77;6.27;;;30.70;87.10;;;;;;5083067;28;20469;-40
2021/06/17 09:32:38;;;;;;;6.33;5.83;;;30.80;86.70;;;;;;5083567;28;20446;-40
2021/06/17 09:35:23;;;;;;;7.00;6.40;;;31.00;85.00;;;;;;5087805;28;20632;-40
2021/06/17 09:37:50;;;;;;;6.87;6.27;;;31.00;84.60;;;;;;5087531;28;20414;-40
2021/06/17 09:40:27;;;;;;;6.80;6.20;;;31.00;86.10;;;;;;5085978;28;20809;-41
2021/06/17 09:43:05;;;;;;;6.03;5.53;;;31.10;84.80;;;;;;5069332;28;20438;-40
2021/06/17 09:45:31;;;;;;;5.97;5.47;;;31.20;82.10;;;;;;5083308;28;20426;-40
2021/06/17 09:47:57;;;;;;;5.97;5.53;;;31.40;81.20;;;;;;5083556;28;20418;-41
2021/06/17 09:50:27;;;;;;;6.00;5.50;;;31.40;81.00;;;;;;5086401;28;20415;-42
2021/06/17 09:52:57;;;;;;;7.03;6.53;;;31.40;82.80;;;;;;5086986;28;20613;-42
2021/06/17 09:55:42;;;;;;;6.07;5.47;;;31.40;82.60;;;;;;5087746;28;20535;-41
2021/06/17 09:58:12;;;;;;;6.40;5.60;;;31.40;84.20;;;;;;5087287;28;20691;-43
2021/06/17 10:00:55;;;;;;;6.40;5.80;;;31.50;83.60;;;;;;5075390;28;20569;-40
2021/06/17 10:03:20;;;;;;;6.43;5.93;;;31.70;81.80;;;;;;5084930;28;20462;-40
2021/06/17 10:05:46;;;;;;;6.53;6.03;;;31.80;80.40;;;;;;5065606;28;20507;-40
2021/06/17 10:08:13;;;;;;;6.67;6.17;;;31.80;80.60;;;;;;5087240;28;20216;-43
2021/06/17 10:10:38;;;;;;;7.30;6.70;;;31.80;80.00;;;;;;5068285;28;20189;-40
2021/06/17 10:13:05;;;;;;;6.00;5.37;;;31.80;79.70;;;;;;5087194;28;20422;-40
2021/06/17 10:15:34;;;;;;;6.80;6.17;;;31.90;77.60;;;;;;5080456;28;20177;-40
2021/06/17 10:18:00;;;;;;;6.07;5.57;;;31.90;80.20;;;;;;5085423;28;20430;-40
2021/06/17 10:20:26;;;;;;;6.03;5.60;;;32.00;79.90;;;;;;5068048;28;20422;-40
2021/06/17 10:22:56;;;;;;;6.00;5.57;;;32.10;79.90;;;;;;5086870;28;20418;-42
2021/06/17 10:25:28;;;;;;;6.70;6.10;;;32.10;79.20;;;;;;5086811;28;20519;-42
2021/06/17 10:28:01;;;;;;;5.70;5.30;;;32.10;79.00;;;;;;5086849;28;20430;-40
2021/06/17 10:30:46;;;;;;;6.37;5.97;;;32.20;78.90;;;;;;5077738;28;20427;-40
2021/06/17 10:33:27;;;;;;;6.43;5.93;;;32.20;77.40;;;;;;5078515;28;20427;-41
2021/06/17 10:35:52;;;;;;;5.70;5.30;;;32.20;78.50;;;;;;5086587;28;20418;-41
2021/06/17 10:38:18;;;;;;;5.67;5.27;;;32.20;79.00;;;;;;5086801;28;20418;-41
2021/06/17 10:40:44;;;;;;;6.00;5.40;;;32.20;76.90;;;;;;5084454;28;20211;-43
2021/06/17 10:43:19;;;;;;;6.40;5.90;;;32.00;75.20;;;;;;5086702;28;20588;-41
2021/06/17 10:45:46;;;;;;;5.37;4.87;;;31.90;76.60;;;;;;5082671;28;20507;-42
2021/06/17 10:48:14;;;;;;;5.90;5.00;;;32.00;79.40;;;;;;5061348;28;20454;-41
2021/06/17 10:50:44;;;;;;;6.40;5.80;;;32.10;78.50;;;;;;5079324;28;20435;-41
2021/06/17 10:53:16;;;;;;;6.00;5.40;;;32.20;76.90;;;;;;5068348;28;20411;-42
2021/06/17 10:56:04;;;;;;;5.50;5.10;;;32.30;76.80;;;;;;5086544;28;20582;-40
2021/06/17 10:58:41;;;;;;;5.27;4.83;;;32.30;78.00;;;;;;5086475;28;20433;-40
2021/06/17 11:01:29;;;;;;;5.40;4.93;;;32.20;74.70;;;;;;5079938;28;20943;-40
2021/06/17 11:04:11;;;;;;;7.00;5.00;;;32.00;72.30;;;;;;5067430;28;20418;-41
2021/06/17 11:06:49;;;;;;;5.43;5.03;;;32.00;73.80;;;;;;5086149;28;20505;-41
2021/06/17 11:09:46;;;;;;;5.50;5.10;;;32.10;76.00;;;;;;5085517;28;20457;-40
2021/06/17 11:12:17;;;;;;;5.50;5.10;;;32.10;77.00;;;;;;5057692;28;20584;-41
2021/06/17 11:14:51;;;;;;;5.90;5.40;;;32.10;76.40;;;;;;5089836;28;20463;-41
2021/06/17 11:17:29;;;;;;;5.77;5.27;;;32.00;74.30;;;;;;5081851;28;20647;-40
2021/06/17 11:20:03;;;;;;;5.50;4.93;;;32.00;76.00;;;;;;5080970;28;20476;-40
2021/06/17 11:22:45;;;;;;;5.57;5.17;;;32.00;74.90;;;;;;5089959;28;20513;-40
2021/06/17 11:25:13;;;;;;;5.20;4.80;;;32.00;75.50;;;;;;5090263;28;20418;-40
2021/06/17 11:27:55;;;;;;;5.57;5.20;;;32.00;72.70;;;;;;5072190;28;20472;-41
2021/06/17 11:30:20;;;;;;;5.30;5.00;;;32.00;72.10;;;;;;5088827;28;20532;-41
2021/06/17 11:32:49;;;;;;;5.40;5.00;;;32.10;73.20;;;;;;5063758;28;20864;-41
2021/06/17 11:35:23;;;;;;;5.70;5.23;;;32.20;75.10;;;;;;5068280;28;20184;-40
2021/06/17 11:37:50;;;;;;;5.27;4.93;;;32.30;73.80;;;;;;5090045;28;20437;-40
2021/06/17 11:40:17;;;;;;;4.80;4.40;;;32.40;75.20;;;;;;5088315;28;20434;-42
2021/06/17 11:42:43;;;;;;;4.73;4.43;;;32.30;72.80;;;;;;5071571;28;20499;-39
2021/06/17 11:45:10;;;;;;;4.83;4.53;;;32.10;72.00;;;;;;5071284;28;20434;-40
2021/06/17 11:47:49;;;;;;;5.60;4.07;;;32.10;73.40;;;;;;5078839;28;20183;-40
2021/06/17 11:50:15;;;;;;;4.30;4.00;;;32.10;73.00;;;;;;5089176;28;20424;-41
2021/06/17 11:52:42;;;;;;;4.93;4.47;;;32.10;71.80;;;;;;5071482;28;20449;-40
2021/06/17 11:55:09;;;;;;;5.30;4.80;;;32.10;71.50;;;;;;5089823;28;20497;-40
2021/06/17 11:57:38;;;;;;;5.20;4.70;;;32.10;71.10;;;;;;5090060;28;20414;-40
2021/06/17 12:00:07;;;;;;;5.10;4.70;;;32.00;72.80;;;;;;5088095;28;21716;-40
2021/06/17 12:02:32;;;;;;;5.60;4.97;;;32.00;71.30;;;;;;5064049;28;20495;-40
2021/06/17 12:04:59;;;;;;;5.30;4.77;;;32.10;72.00;;;;;;5084534;28;20946;-39
2021/06/17 12:07:28;;;;;;;5.30;4.80;;;32.20;74.80;;;;;;5089609;28;20562;-41
2021/06/17 12:10:07;;;;;;;5.20;4.70;;;32.40;74.90;;;;;;5088590;28;20531;-40
2021/06/17 12:12:35;;;;;;;5.57;5.17;;;32.50;71.30;;;;;;5089400;28;20508;-42
2021/06/17 12:15:01;;;;;;;5.20;4.80;;;32.40;72.10;;;;;;5088478;28;20417;-40
2021/06/17 12:17:35;;;;;;;5.00;4.60;;;32.50;72.90;;;;;;5080837;28;20425;-42
2021/06/17 12:20:23;;;;;;;6.73;5.20;;;32.60;73.10;;;;;;5065018;28;20691;-41
2021/06/17 12:23:01;;;;;;;5.70;5.17;;;32.70;71.40;;;;;;5075769;28;20437;-42
2021/06/17 12:25:33;;;;;;;5.83;5.30;;;32.70;71.80;;;;;;5088352;28;20472;-41
2021/06/17 12:28:00;;;;;;;5.80;5.20;;;32.70;71.20;;;;;;5089427;28;20916;-41
2021/06/17 12:30:32;;;;;;;5.77;5.30;;;32.80;71.20;;;;;;5068550;28;20438;-40
2021/06/17 12:33:21;;;;;;;5.73;5.23;;;32.80;69.60;;;;;;5082854;28;20510;-39
2021/06/17 12:35:57;;;;;;;5.30;4.90;;;32.90;71.30;;;;;;5079944;28;20416;-41
2021/06/17 12:38:35;;;;;;;5.00;4.70;;;33.00;73.80;;;;;;5070956;28;21070;-40
2021/06/17 12:41:18;;;;;;;6.13;5.53;;;33.10;72.30;;;;;;5087313;28;20522;-42
2021/06/17 12:43:47;;;;;;;6.00;5.43;;;33.00;70.90;;;;;;5088809;28;20426;-40
2021/06/17 12:46:14;;;;;;;5.57;5.03;;;32.90;69.20;;;;;;5083704;28;20430;-40
2021/06/17 12:54:36;;;;;;;5.87;5.10;;;32.70;70.20;;;;;;5089030;28;20418;-42
2021/06/17 12:57:11;;;;;;;5.53;5.03;;;32.80;71.20;;;;;;5088444;28;20480;-41
2021/06/17 12:59:46;;;;;;;5.87;4.90;;;32.90;70.40;;;;;;5088063;28;20417;-40
2021/06/17 13:02:33;;;;;;;6.50;5.90;;;33.00;71.40;;;;;;5074573;28;20443;-40
2021/06/17 13:05:02;;;;;;;5.63;5.10;;;32.90;69.50;;;;;;5046727;28;20419;-40
2021/06/17 13:07:28;;;;;;;6.00;5.50;;;32.80;71.90;;;;;;5087095;28;20890;-40